Time;durP1;ratioP1;P1;durP2;ratioP2;P2;SDS_P1;SDS_P2;PMS_P1;PMS_P2;Temp;Humidity;BMP_temperature;BMP_pressure;BME280_temperature;BME280_humidity;BME280_pressure;Samples;Min_cycle;Max_cycle;Signal;HPM_P1;HPM_P2
2023/01/07 00:01:25;;;;;;;16.45;5.32;;;;;;;4.22;100.00;100997.78;5024407;28;20029;-75
2023/01/07 00:03:52;;;;;;;17.30;4.22;;;;;;;4.20;100.00;100994.41;5023133;28;20677;-76
2023/01/07 00:06:20;;;;;;;13.95;5.22;;;;;;;4.20;100.00;100997.06;5022744;28;20036;-76
2023/01/07 00:08:47;;;;;;;14.23;4.45;;;;;;;4.20;100.00;101002.34;5021541;28;20041;-76
2023/01/07 00:11:15;;;;;;;17.58;5.45;;;;;;;4.26;100.00;101008.97;5006143;28;20041;-75
2023/01/07 00:13:42;;;;;;;15.52;5.40;;;;;;;4.21;100.00;100992.59;5021007;28;20037;-75
2023/01/07 00:16:10;;;;;;;22.15;6.93;;;;;;;4.33;100.00;101007.56;5005231;28;20022;-76
2023/01/07 00:18:36;;;;;;;17.33;5.35;;;;;;;4.16;100.00;100990.31;5007467;28;20046;-76
2023/01/07 00:21:05;;;;;;;15.27;6.22;;;;;;;4.19;100.00;100991.88;4992207;28;20398;-76
2023/01/07 00:23:32;;;;;;;15.45;6.07;;;;;;;4.20;100.00;100989.13;5023785;28;20087;-76
2023/01/07 00:26:06;;;;;;;22.17;5.80;;;;;;;4.21;100.00;101000.53;5031466;28;20795;-76
2023/01/07 00:28:33;;;;;;;17.30;6.43;;;;;;;4.13;100.00;100995.81;5022008;28;20033;-76
2023/01/07 00:31:00;;;;;;;23.33;6.55;;;;;;;4.20;100.00;101002.34;4991318;28;20118;-75
2023/01/07 00:33:27;;;;;;;19.98;7.20;;;;;;;4.23;100.00;100986.25;5005861;28;20175;-75
2023/01/07 00:36:03;;;;;;;19.48;6.22;;;;;;;4.28;100.00;100985.06;5006783;28;20174;-76
2023/01/07 00:38:29;;;;;;;22.33;7.10;;;;;;;4.33;100.00;100988.19;5022296;28;20073;-75
2023/01/07 00:40:55;;;;;;;15.05;7.38;;;;;;;4.32;100.00;100978.59;5006180;28;20060;-75
2023/01/07 00:43:20;;;;;;;16.30;6.93;;;;;;;4.31;100.00;100974.25;5022255;28;20068;-76
2023/01/07 00:45:45;;;;;;;17.67;8.17;;;;;;;4.35;100.00;100976.53;5005193;28;20029;-75
2023/01/07 00:48:11;;;;;;;19.50;6.33;;;;;;;4.27;100.00;100964.88;5023538;28;20443;-76
2023/01/07 00:50:37;;;;;;;17.85;6.90;;;;;;;4.28;100.00;100964.75;5020755;28;20548;-76
2023/01/07 00:53:03;;;;;;;;;;;;;;;4.27;100.00;100970.16;5023978;28;20037;-75
2023/01/07 00:55:28;;;;;;;28.30;10.07;;;;;;;4.22;100.00;100963.44;5021608;28;19939;-75
2023/01/07 00:57:55;;;;;;;17.67;8.55;;;;;;;4.26;100.00;100968.47;4997618;28;20535;-75
2023/01/07 01:00:22;;;;;;;18.05;8.18;;;;;;;4.21;100.00;100977.59;5001024;28;20092;-75
2023/01/07 01:02:48;;;;;;;17.92;8.45;;;;;;;4.28;100.00;100980.59;5029987;28;20025;-76
2023/01/07 01:05:14;;;;;;;;;;;;;;;4.31;100.00;100979.53;5022274;28;20552;-75
2023/01/07 01:07:40;;;;;;;21.38;9.63;;;;;;;4.32;100.00;100983.88;5020673;28;19943;-75
2023/01/07 01:10:08;;;;;;;23.52;8.38;;;;;;;4.32;100.00;100981.22;5004924;28;20413;-76
2023/01/07 01:12:34;;;;;;;19.60;8.77;;;;;;;4.36;100.00;100990.63;5020907;28;20069;-75
2023/01/07 01:15:01;;;;;;;20.90;8.18;;;;;;;4.39;100.00;100985.94;5007158;28;20057;-76
2023/01/07 01:17:26;;;;;;;17.73;7.43;;;;;;;4.53;100.00;100992.81;5005161;28;20033;-76
2023/01/07 01:19:51;;;;;;;18.88;8.60;;;;;;;4.57;100.00;100983.69;5020265;28;20121;-75
2023/01/07 01:22:17;;;;;;;15.97;7.93;;;;;;;4.60;100.00;100978.16;5022530;28;20168;-75
2023/01/07 01:24:43;;;;;;;16.98;7.63;;;;;;;4.55;100.00;100969.75;5020198;28;20243;-77
2023/01/07 01:27:08;;;;;;;20.60;8.10;;;;;;;4.58;100.00;100956.28;5005111;28;20029;-76
2023/01/07 01:29:33;;;;;;;22.77;8.20;;;;;;;4.58;100.00;100964.22;5021098;28;20913;-76
2023/01/07 01:31:59;;;;;;;18.23;9.27;;;;;;;4.55;100.00;100953.03;5021732;28;20056;-75
2023/01/07 01:34:26;;;;;;;23.55;9.07;;;;;;;4.58;100.00;100945.69;5006120;28;20032;-75
2023/01/07 01:36:52;;;;;;;28.65;9.63;;;;;;;4.58;100.00;100947.50;5004272;28;20026;-76
2023/01/07 01:39:19;;;;;;;21.03;8.97;;;;;;;4.64;100.00;100958.44;5004980;28;20032;-76
2023/01/07 01:41:46;;;;;;;20.55;9.55;;;;;;;4.65;100.00;100949.53;5019646;28;20034;-75
2023/01/07 01:44:42;;;;;;;22.80;9.63;;;;;;;4.65;100.00;100948.72;5021366;28;20548;-75
2023/01/07 01:47:28;;;;;;;23.67;11.38;;;;;;;4.72;100.00;100957.00;5014331;28;20566;-76
2023/01/07 01:50:05;;;;;;;34.45;11.40;;;;;;;4.75;100.00;100952.34;5021850;28;20038;-75
2023/01/07 01:52:43;;;;;;;23.55;9.95;;;;;;;4.84;100.00;100950.75;5020411;28;20115;-76
2023/01/07 01:55:13;;;;;;;21.73;9.57;;;;;;;4.86;100.00;100940.91;5003411;28;20037;-75
2023/01/07 01:57:40;;;;;;;26.48;10.35;;;;;;;4.84;100.00;100934.88;5003344;28;20038;-75
2023/01/07 02:00:08;;;;;;;23.02;10.25;;;;;;;4.94;100.00;100933.22;5005008;28;20029;-76
2023/01/07 02:02:56;;;;;;;24.13;11.02;;;;;;;4.93;100.00;100930.69;5020976;28;20098;-75
2023/01/07 02:05:26;;;;;;;25.88;11.77;;;;;;;4.96;100.00;100922.50;5001304;28;20103;-75
2023/01/07 02:07:51;;;;;;;24.02;11.35;;;;;;;4.93;100.00;100917.44;5021712;28;20113;-75
2023/01/07 02:10:22;;;;;;;30.15;12.70;;;;;;;4.97;100.00;100929.47;5020922;28;20607;-75
2023/01/07 02:12:58;;;;;;;30.52;13.15;;;;;;;4.90;100.00;100923.84;5019637;28;20103;-76
2023/01/07 02:15:42;;;;;;;28.17;12.32;;;;;;;4.84;100.00;100921.66;5006541;28;20030;-75
2023/01/07 02:18:24;;;;;;;25.40;12.02;;;;;;;4.83;100.00;100917.34;5010186;28;20242;-75
2023/01/07 02:21:16;;;;;;;28.58;11.23;;;;;;;4.83;100.00;100923.47;5020045;28;20044;-75
2023/01/07 02:24:03;;;;;;;27.10;11.98;;;;;;;4.84;100.00;100934.88;5007900;28;20124;-76
2023/01/07 02:26:59;;;;;;;35.00;12.50;;;;;;;4.90;100.00;100941.50;5010366;28;20033;-76
2023/01/07 02:29:53;;;;;;;27.60;12.63;;;;;;;4.85;100.00;100936.59;4987073;28;20033;-76
2023/01/07 02:32:52;;;;;;;30.70;14.73;;;;;;;4.75;100.00;100933.81;5001142;28;20108;-75
2023/01/07 02:35:27;;;;;;;32.88;14.30;;;;;;;4.73;100.00;100937.53;5000803;28;20034;-76
2023/01/07 02:38:14;;;;;;;33.88;14.85;;;;;;;4.78;100.00;100943.31;5025428;28;20399;-75
2023/01/07 02:40:53;;;;;;;31.48;16.48;;;;;;;4.88;100.00;100935.50;5023018;28;20033;-76
2023/01/07 02:43:38;;;;;;;35.03;14.70;;;;;;;4.91;100.00;100933.44;5024909;28;20037;-76
2023/01/07 02:46:15;;;;;;;30.98;15.05;;;;;;;4.91;100.00;100930.78;5016467;28;20141;-76
2023/01/07 02:48:43;;;;;;;35.85;16.35;;;;;;;4.96;100.00;100936.56;4990781;28;20487;-76
2023/01/07 02:51:08;;;;;;;35.80;15.38;;;;;;;4.96;100.00;100941.84;5024361;28;20479;-76
2023/01/07 02:53:34;;;;;;;33.60;14.93;;;;;;;5.00;100.00;100940.66;5023764;28;20029;-76
2023/01/07 02:56:14;;;;;;;40.72;17.83;;;;;;;5.01;100.00;100937.06;5026056;28;20021;-76
2023/01/07 02:58:57;;;;;;;42.13;15.93;;;;;;;5.02;100.00;100941.38;5021439;28;20072;-76
2023/01/07 03:01:47;;;;;;;42.92;16.52;;;;;;;5.02;100.00;100932.59;5022495;28;20132;-76
2023/01/07 03:04:34;;;;;;;40.80;18.10;;;;;;;5.08;100.00;100943.53;5029620;28;20473;-76
2023/01/07 03:07:37;;;;;;;46.85;19.25;;;;;;;5.07;100.00;100933.06;5006556;28;20100;-76
2023/01/07 03:10:24;;;;;;;41.25;17.48;;;;;;;5.14;100.00;100950.13;5007104;28;20838;-76
2023/01/07 03:13:05;;;;;;;47.95;17.30;;;;;;;5.17;100.00;100939.31;5024321;28;20041;-76
2023/01/07 03:16:08;;;;;;;44.03;17.17;;;;;;;5.18;100.00;100925.13;5023329;28;20025;-77
2023/01/07 03:18:41;;;;;;;40.97;18.05;;;;;;;5.15;100.00;100924.50;4962395;28;20091;-76
2023/01/07 03:21:12;;;;;;;55.38;18.98;;;;;;;5.13;100.00;100931.72;5006636;28;20920;-76
2023/01/07 03:23:42;;;;;;;39.55;17.02;;;;;;;5.20;100.00;100927.66;5007103;28;20037;-76
2023/01/07 03:26:10;;;;;;;43.90;18.42;;;;;;;5.19;100.00;100924.13;5012115;28;20572;-76
2023/01/07 03:28:40;;;;;;;43.38;18.63;;;;;;;5.21;100.00;100919.56;5006251;28;20116;-76
2023/01/07 03:31:10;;;;;;;40.00;17.42;;;;;;;5.26;100.00;100919.19;4995347;28;20030;-76
2023/01/07 03:33:47;;;;;;;42.03;17.02;;;;;;;5.27;100.00;100924.38;5007061;28;20138;-76
2023/01/07 03:36:18;;;;;;;52.85;20.23;;;;;;;5.30;100.00;100928.59;5016452;28;20033;-76
2023/01/07 03:38:46;;;;;;;45.33;18.80;;;;;;;5.27;100.00;100921.72;5023208;28;20065;-76
2023/01/07 03:42:38;;;;;;;53.63;20.15;;;;;;;5.35;100.00;100920.28;5008094;28;20383;-76
2023/01/07 03:43:57;;;;;;;50.20;18.67;;;;;;;5.37;100.00;100913.88;5014192;28;20038;-77
2023/01/07 03:46:23;;;;;;;50.35;19.95;;;;;;;5.37;100.00;100908.59;5006922;28;20028;-76
2023/01/07 03:48:48;;;;;;;48.45;20.50;;;;;;;5.38;100.00;100914.72;5006933;28;20030;-77
2023/01/07 03:51:14;;;;;;;47.63;18.17;;;;;;;5.24;100.00;100894.66;5006710;28;20041;-76
2023/01/07 03:53:40;;;;;;;53.33;20.50;;;;;;;5.38;100.00;100902.31;4990442;28;20450;-76
2023/01/07 03:56:05;;;;;;;45.40;19.83;;;;;;;5.39;100.00;100904.00;5007516;28;20029;-76
2023/01/07 03:58:31;;;;;;;56.75;21.20;;;;;;;5.43;100.00;100908.09;5008458;28;20033;-77
2023/01/07 04:00:56;;;;;;;47.70;21.20;;;;;;;5.41;100.00;100903.91;5008122;28;20038;-76
2023/01/07 04:03:21;;;;;;;50.83;20.60;;;;;;;5.45;100.00;100903.50;4990372;28;20030;-76
2023/01/07 04:05:47;;;;;;;55.40;23.33;;;;;;;5.45;100.00;100902.66;5007497;28;20074;-76
2023/01/07 04:08:12;;;;;;;49.50;20.63;;;;;;;5.50;100.00;100893.38;5024588;28;20530;-76
2023/01/07 04:10:38;;;;;;;50.30;21.70;;;;;;;5.50;100.00;100895.16;5022351;28;20039;-76
2023/01/07 04:13:04;;;;;;;67.07;21.42;;;;;;;5.46;100.00;100886.66;4990411;28;20026;-76
2023/01/07 04:15:29;;;;;;;58.93;21.57;;;;;;;5.52;100.00;100895.06;5006287;28;20491;-77
2023/01/07 04:17:54;;;;;;;64.88;24.92;;;;;;;5.56;100.00;100885.91;5007896;28;20030;-76
2023/01/07 04:20:21;;;;;;;60.10;24.13;;;;;;;5.63;100.00;100884.41;5006156;28;20030;-77
2023/01/07 04:22:47;;;;;;;57.10;23.87;;;;;;;5.69;100.00;100886.56;5006425;28;20087;-76
2023/01/07 04:25:12;;;;;;;55.23;24.63;;;;;;;5.70;100.00;100888.25;5007635;28;20465;-76
2023/01/07 04:27:37;;;;;;;62.03;23.33;;;;;;;5.80;100.00;100881.19;4989896;28;20037;-76
2023/01/07 04:30:04;;;;;;;62.33;25.25;;;;;;;5.81;100.00;100888.19;5006238;28;20035;-76
2023/01/07 04:32:32;;;;;;;62.15;25.45;;;;;;;5.86;100.00;100898.41;5007476;28;20034;-78
2023/01/07 04:34:57;;;;;;;66.10;27.23;;;;;;;5.87;100.00;100889.47;5006106;28;20014;-77
2023/01/07 04:37:23;;;;;;;72.35;27.15;;;;;;;5.88;100.00;100886.72;5018353;28;20034;-76
2023/01/07 04:39:48;;;;;;;68.30;29.07;;;;;;;5.91;100.00;100875.00;4989850;28;20049;-76
2023/01/07 04:42:14;;;;;;;75.53;28.43;;;;;;;6.01;100.00;100888.34;4989516;28;20037;-76
2023/01/07 04:44:40;;;;;;;77.07;29.77;;;;;;;6.07;100.00;100890.50;4989128;28;20030;-76
2023/01/07 04:47:05;;;;;;;70.67;30.70;;;;;;;6.11;100.00;100876.00;5005818;28;20547;-76
2023/01/07 04:49:30;;;;;;;84.80;32.63;;;;;;;6.18;100.00;100878.97;4989364;28;20491;-78
2023/01/07 04:51:56;;;;;;;;;;;;;;;6.22;100.00;100883.03;5006118;28;20664;-76
2023/01/07 04:54:22;;;;;;;80.05;30.45;;;;;;;6.20;100.00;100885.81;5022408;28;19917;-77
2023/01/07 04:56:48;;;;;;;83.27;31.20;;;;;;;6.29;100.00;100871.78;5005714;28;20121;-76
2023/01/07 04:59:14;;;;;;;71.05;30.02;;;;;;;6.33;100.00;100869.72;5007128;28;20284;-76
2023/01/07 05:01:40;;;;;;;69.30;31.05;;;;;;;6.34;100.00;100874.03;4989298;28;20083;-77
2023/01/07 05:04:07;;;;;;;;;;;;;;;6.38;100.00;100878.09;5006168;28;20681;-77
2023/01/07 05:06:32;;;;;;;76.43;32.30;;;;;;;6.39;100.00;100878.94;5005469;28;19957;-76
2023/01/07 05:08:57;;;;;;;72.73;31.83;;;;;;;6.37;100.00;100860.53;4989548;28;20029;-77
2023/01/07 05:11:23;;;;;;;85.00;32.53;;;;;;;6.43;100.00;100867.09;4998192;28;20056;-76
2023/01/07 05:13:52;;;;;;;83.45;33.70;;;;;;;6.48;100.00;100872.84;5007385;28;20040;-76
2023/01/07 05:16:18;;;;;;;87.85;34.63;;;;;;;6.45;100.00;100862.50;5017605;28;20025;-77
2023/01/07 05:18:44;;;;;;;83.85;32.15;;;;;;;6.50;100.00;100865.59;4989353;28;20395;-77
2023/01/07 05:21:11;;;;;;;79.72;31.98;;;;;;;6.49;100.00;100862.09;4989128;28;20022;-76
2023/01/07 05:23:37;;;;;;;85.40;33.55;;;;;;;6.53;100.00;100857.34;4989246;28;20040;-76
2023/01/07 05:26:03;;;;;;;92.20;35.50;;;;;;;6.57;100.00;100855.28;5004780;28;20026;-76
2023/01/07 05:28:29;;;;;;;84.43;34.05;;;;;;;6.56;100.00;100849.16;4989447;28;20513;-76
2023/01/07 05:30:55;;;;;;;98.78;37.88;;;;;;;6.58;100.00;100849.88;4988659;28;20025;-77
2023/01/07 05:33:21;;;;;;;94.67;37.07;;;;;;;6.61;100.00;100846.94;5005429;28;20029;-77
2023/01/07 05:35:47;;;;;;;83.80;34.50;;;;;;;6.59;100.00;100854.19;5005017;28;20033;-77
2023/01/07 05:38:13;;;;;;;85.57;35.88;;;;;;;6.64;100.00;100859.09;5005341;28;20038;-77
2023/01/07 05:40:40;;;;;;;86.05;33.42;;;;;;;6.68;100.00;100864.00;4988612;28;20254;-77
2023/01/07 05:43:06;;;;;;;87.47;35.83;;;;;;;6.72;100.00;100854.78;4988978;28;20569;-78
2023/01/07 05:45:31;;;;;;;84.27;33.60;;;;;;;6.75;100.00;100857.16;5004955;28;20022;-76
2023/01/07 05:47:57;;;;;;;87.53;34.13;;;;;;;6.75;100.00;100851.03;5007606;28;20117;-77
2023/01/07 05:50:22;;;;;;;102.70;38.70;;;;;;;6.68;100.00;100841.94;5022092;28;20045;-77
2023/01/07 05:52:49;;;;;;;90.47;35.60;;;;;;;6.79;100.00;100851.59;5005948;28;20041;-76
2023/01/07 05:55:15;;;;;;;91.60;34.17;;;;;;;6.82;100.00;100854.00;5006276;28;20030;-77
2023/01/07 05:57:40;;;;;;;89.00;36.08;;;;;;;6.83;100.00;100856.50;5009526;28;20028;-77
2023/01/07 06:00:09;;;;;;;78.97;36.37;;;;;;;6.85;100.00;100859.00;4992802;28;20048;-77
2023/01/07 06:02:37;;;;;;;88.35;35.35;;;;;;;6.86;100.00;100850.06;5010239;28;20269;-76
2023/01/07 06:05:03;;;;;;;91.77;35.97;;;;;;;6.93;100.00;100845.88;5010354;28;20135;-76
2023/01/07 06:07:28;;;;;;;79.93;35.13;;;;;;;6.96;100.00;100842.97;4992814;28;20843;-77
2023/01/07 06:09:54;;;;;;;85.17;36.03;;;;;;;6.94;100.00;100840.47;4992801;28;20026;-77
2023/01/07 06:12:19;;;;;;;91.57;36.10;;;;;;;6.93;100.00;100843.22;5010436;28;20111;-77
2023/01/07 06:14:44;;;;;;;97.80;36.40;;;;;;;6.97;100.00;100847.31;4994924;28;20065;-79
2023/01/07 06:17:10;;;;;;;91.97;36.93;;;;;;;7.02;100.00;100846.91;5016444;28;20033;-77
2023/01/07 06:19:35;;;;;;;90.10;36.53;;;;;;;7.06;100.00;100850.97;5011619;28;20042;-78
2023/01/07 06:22:00;;;;;;;91.40;39.17;;;;;;;7.07;100.00;100837.56;5012582;28;20104;-78
2023/01/07 06:24:26;;;;;;;93.93;38.37;;;;;;;7.05;100.00;100842.16;5026001;28;20025;-77
2023/01/07 06:26:51;;;;;;;86.03;34.23;;;;;;;7.01;100.00;100837.25;5010165;28;20033;-78
2023/01/07 06:29:16;;;;;;;89.90;33.80;;;;;;;7.08;100.00;100839.22;5019929;28;20044;-78
2023/01/07 06:31:42;;;;;;;91.87;33.97;;;;;;;7.08;100.00;100843.69;5018106;28;20048;-77
2023/01/07 06:34:07;;;;;;;87.17;34.87;;;;;;;7.08;100.00;100839.22;5010366;28;20040;-78
2023/01/07 06:36:32;;;;;;;85.60;32.90;;;;;;;7.12;100.00;100835.31;4992515;28;20038;-78
2023/01/07 06:38:58;;;;;;;86.70;33.27;;;;;;;7.14;100.00;100836.03;5012119;28;20488;-78
2023/01/07 06:41:23;;;;;;;80.93;32.27;;;;;;;7.19;100.00;100833.78;4994121;28;20438;-78
2023/01/07 06:43:48;;;;;;;81.87;32.90;;;;;;;7.17;100.00;100833.09;5009597;28;20060;-78
2023/01/07 06:46:14;;;;;;;84.37;33.73;;;;;;;7.15;100.00;100824.41;5008553;28;20101;-77
2023/01/07 06:48:39;;;;;;;80.93;31.90;;;;;;;7.24;100.00;100840.50;5009811;28;20072;-78
2023/01/07 06:51:04;;;;;;;82.47;34.00;;;;;;;7.31;100.00;100842.47;5024446;28;20026;-78
2023/01/07 06:53:30;;;;;;;77.67;31.37;;;;;;;7.41;100.00;100839.81;5007895;28;20506;-77
2023/01/07 06:55:55;;;;;;;78.68;33.90;;;;;;;7.43;100.00;100837.03;5008253;28;20025;-77
2023/01/07 06:58:21;;;;;;;81.37;32.10;;;;;;;7.43;100.00;100835.19;5009437;28;20124;-78
2023/01/07 07:00:46;;;;;;;73.93;32.10;;;;;;;7.43;100.00;100831.72;4994429;28;20041;-77
2023/01/07 07:03:11;;;;;;;81.17;32.73;;;;;;;7.38;100.00;100816.19;5007969;28;20053;-77
2023/01/07 07:05:37;;;;;;;78.57;33.67;;;;;;;7.48;100.00;100830.31;5008385;28;20037;-77
2023/01/07 07:08:03;;;;;;;73.65;31.27;;;;;;;7.55;100.00;100830.59;5008762;28;20034;-77
2023/01/07 07:10:29;;;;;;;78.95;31.50;;;;;;;7.61;100.00;100838.84;5008227;28;20552;-77
2023/01/07 07:12:54;;;;;;;81.10;33.67;;;;;;;7.63;100.00;100832.53;4999256;28;20121;-77
2023/01/07 07:15:20;;;;;;;82.13;35.73;;;;;;;7.62;100.00;100823.72;5007865;28;20503;-78
2023/01/07 07:17:45;;;;;;;81.37;34.40;;;;;;;7.62;100.00;100826.38;5015831;28;20041;-77
2023/01/07 07:20:11;;;;;;;87.53;36.50;;;;;;;7.61;100.00;100820.25;5008705;28;20033;-79
2023/01/07 07:22:36;;;;;;;88.17;37.20;;;;;;;7.65;100.00;100827.91;4993134;28;20141;-77
2023/01/07 07:25:02;;;;;;;86.93;35.50;;;;;;;7.59;100.00;100824.84;5009074;28;20068;-77
2023/01/07 07:27:28;;;;;;;82.10;33.00;;;;;;;7.67;100.00;100839.25;5007462;28;20041;-77
2023/01/07 07:29:53;;;;;;;86.37;38.40;;;;;;;7.66;100.00;100816.31;5009267;28;20644;-77
2023/01/07 07:32:18;;;;;;;95.30;36.53;;;;;;;7.70;100.00;100825.66;5008832;28;20449;-77
2023/01/07 07:34:44;;;;;;;97.40;39.13;;;;;;;7.72;100.00;100821.06;5007453;28;20017;-77
2023/01/07 07:37:09;;;;;;;97.60;38.07;;;;;;;7.69;100.00;100821.34;5008389;28;20038;-77
2023/01/07 07:39:34;;;;;;;95.13;35.80;;;;;;;7.73;100.00;100820.91;5007258;28;20038;-77
2023/01/07 07:42:04;;;;;;;84.27;34.80;;;;;;;7.74;100.00;100822.59;5007002;28;20029;-78
2023/01/07 07:44:29;;;;;;;86.43;35.95;;;;;;;7.82;100.00;100827.22;5008705;28;20077;-78
2023/01/07 07:46:55;;;;;;;80.53;37.27;;;;;;;7.83;100.00;100829.72;5007113;28;20050;-77
2023/01/07 07:49:20;;;;;;;100.97;38.10;;;;;;;7.75;100.00;100813.66;5007152;28;20076;-77
2023/01/07 07:51:45;;;;;;;81.83;35.57;;;;;;;7.81;100.00;100820.19;5006680;28;20117;-77
2023/01/07 07:54:11;;;;;;;97.97;37.80;;;;;;;7.78;100.00;100807.22;5007200;28;20045;-77
2023/01/07 07:56:36;;;;;;;87.07;37.93;;;;;;;7.88;100.00;100820.47;5014958;28;20033;-77
2023/01/07 07:59:01;;;;;;;82.90;35.90;;;;;;;7.86;100.00;100796.69;4990808;28;20378;-78
2023/01/07 08:01:27;;;;;;;85.10;33.90;;;;;;;7.91;100.00;100815.69;5006267;28;20049;-78
2023/01/07 08:03:52;;;;;;;86.47;38.00;;;;;;;7.97;100.00;100816.94;5007180;28;20026;-77
2023/01/07 08:06:17;;;;;;;80.80;36.80;;;;;;;7.97;100.00;100812.47;5006552;28;20038;-77
2023/01/07 08:08:43;;;;;;;75.40;33.73;;;;;;;7.93;100.00;100802.25;5008466;28;20060;-77
2023/01/07 08:11:08;;;;;;;83.87;35.50;;;;;;;7.98;100.00;100798.22;5025271;28;20056;-77
2023/01/07 08:13:33;;;;;;;78.03;33.70;;;;;;;8.00;100.00;100792.72;5019680;28;20029;-78
2023/01/07 08:15:59;;;;;;;83.37;35.33;;;;;;;8.10;100.00;100806.00;5006432;28;20380;-77
2023/01/07 08:18:24;;;;;;;78.07;32.07;;;;;;;8.08;100.00;100794.66;5007268;28;20052;-78
2023/01/07 08:20:50;;;;;;;77.37;34.73;;;;;;;8.17;100.00;100799.09;5007927;28;20397;-78
2023/01/07 08:23:15;;;;;;;84.00;35.25;;;;;;;8.09;100.00;100785.72;5015591;28;20068;-78
2023/01/07 08:25:41;;;;;;;79.40;35.60;;;;;;;8.10;100.00;100780.25;5006051;28;20038;-78
2023/01/07 08:28:09;;;;;;;75.43;34.25;;;;;;;8.20;100.00;100783.72;5021578;28;20057;-78
2023/01/07 08:30:34;;;;;;;78.53;35.17;;;;;;;8.16;100.00;100782.31;5005839;28;20566;-77
2023/01/07 08:33:01;;;;;;;78.90;35.53;;;;;;;8.19;100.00;100784.72;5006558;28;20117;-78
2023/01/07 08:35:27;;;;;;;74.10;36.28;;;;;;;8.21;100.00;100789.84;5006660;28;20026;-78
2023/01/07 08:38:00;;;;;;;66.87;32.57;;;;;;;8.25;100.00;100777.94;5006408;28;20490;-78
2023/01/07 08:40:25;;;;;;;73.75;34.90;;;;;;;8.28;100.00;100788.28;5006654;28;20064;-77
2023/01/07 08:42:50;;;;;;;69.37;32.37;;;;;;;8.25;100.00;100785.94;5006017;28;20085;-77
2023/01/07 08:45:16;;;;;;;65.93;30.93;;;;;;;8.34;100.00;100794.88;4989919;28;20041;-78
2023/01/07 08:47:45;;;;;;;71.78;34.92;;;;;;;8.34;100.00;100789.53;5007870;28;20037;-77
2023/01/07 08:50:11;;;;;;;66.90;32.40;;;;;;;8.33;100.00;100783.34;5008090;28;20037;-78
2023/01/07 08:52:36;;;;;;;62.60;31.60;;;;;;;8.38;100.00;100775.81;5007525;28;20104;-78
2023/01/07 08:55:01;;;;;;;64.57;30.67;;;;;;;8.36;100.00;100788.41;5006633;28;20022;-78
2023/01/07 08:57:27;;;;;;;67.40;33.07;;;;;;;8.38;100.00;100780.25;4990178;28;20153;-77
2023/01/07 08:59:52;;;;;;;65.93;31.47;;;;;;;8.40;100.00;100783.66;5007335;28;20026;-76
2023/01/07 09:02:18;;;;;;;65.43;31.63;;;;;;;8.36;100.00;100785.75;5006741;28;20111;-76
2023/01/07 09:04:44;;;;;;;63.83;29.80;;;;;;;8.40;100.00;100784.47;5006837;28;20060;-77
2023/01/07 09:07:11;;;;;;;67.88;31.73;;;;;;;8.49;100.00;100788.09;5006818;28;20454;-77
2023/01/07 09:09:36;;;;;;;67.20;33.10;;;;;;;8.48;100.00;100790.91;5007632;28;20117;-78
2023/01/07 09:12:03;;;;;;;62.63;28.92;;;;;;;8.40;100.00;100779.16;5008078;28;20099;-77
2023/01/07 09:14:28;;;;;;;73.30;35.05;;;;;;;8.50;100.00;100787.13;5008616;28;20033;-78
2023/01/07 09:16:54;;;;;;;58.27;29.33;;;;;;;8.47;100.00;100786.56;5015329;28;20566;-77
2023/01/07 09:19:21;;;;;;;70.90;33.67;;;;;;;8.45;100.00;100779.56;4991302;28;20040;-78
2023/01/07 09:21:46;;;;;;;68.53;33.22;;;;;;;8.47;100.00;100770.59;5007973;28;20026;-77
2023/01/07 09:24:12;;;;;;;62.07;30.67;;;;;;;8.51;100.00;100782.63;4991111;28;20059;-78
2023/01/07 09:26:37;;;;;;;61.25;30.83;;;;;;;8.56;100.00;100772.38;5007059;28;20316;-77
2023/01/07 09:29:02;;;;;;;56.37;28.53;;;;;;;8.61;100.00;100770.91;5007732;28;20113;-77
2023/01/07 09:31:28;;;;;;;57.40;32.23;;;;;;;8.57;100.00;100766.03;5007402;28;20145;-77
2023/01/07 09:33:53;;;;;;;53.93;30.07;;;;;;;8.64;100.00;100759.16;5017963;28;20080;-77
2023/01/07 09:36:18;;;;;;;64.47;33.20;;;;;;;8.63;100.00;100760.13;5014082;28;20030;-77
2023/01/07 09:38:44;;;;;;;57.58;30.60;;;;;;;8.72;100.00;100756.56;5009785;28;20034;-78
2023/01/07 09:41:30;;;;;;;60.80;31.20;;;;;;;8.75;100.00;100758.09;5007818;28;20044;-77
2023/01/07 09:44:09;;;;;;;57.47;30.27;;;;;;;8.72;100.00;100750.44;5008614;28;20048;-77
2023/01/07 09:46:35;;;;;;;56.22;29.27;;;;;;;8.78;100.00;100763.97;5009036;28;20498;-77
2023/01/07 09:49:01;;;;;;;;;;;;;;;8.85;100.00;100770.38;5010773;28;20026;-77
2023/01/07 09:51:32;;;;;;;;;;;;;;;8.88;100.00;100767.41;5008331;28;20000;-78
2023/01/07 09:54:01;;;;;;;56.45;27.55;;;;;;;8.87;100.00;100756.88;5009325;28;19914;-78
2023/01/07 09:56:31;;;;;;;56.67;29.63;;;;;;;8.84;100.00;100750.03;5007465;28;20033;-79
2023/01/07 09:58:58;;;;;;;50.42;28.60;;;;;;;8.92;100.00;100756.44;5005253;28;20026;-78
2023/01/07 10:01:35;;;;;;;50.75;28.52;;;;;;;8.94;100.00;100757.13;5005049;28;20038;-77
2023/01/07 10:04:26;;;;;;;49.42;28.42;;;;;;;9.02;100.00;100746.56;5021589;28;20034;-77
2023/01/07 10:07:07;;;;;;;49.15;25.67;;;;;;;9.00;100.00;100743.22;5006434;28;20399;-76
2023/01/07 10:09:54;;;;;;;50.83;27.17;;;;;;;9.02;100.00;100739.41;5005122;28;20044;-77
2023/01/07 10:12:44;;;;;;;45.67;26.23;;;;;;;8.96;100.00;100745.34;5008125;28;20064;-77
2023/01/07 10:15:32;;;;;;;46.92;26.98;;;;;;;8.96;100.00;100732.00;5005158;28;20072;-77
2023/01/07 10:18:04;;;;;;;49.17;27.85;;;;;;;9.02;100.00;100731.41;5006157;28;20107;-76
2023/01/07 10:20:39;;;;;;;45.00;25.45;;;;;;;8.99;100.00;100720.22;5008372;28;20034;-78
2023/01/07 10:23:13;;;;;;;44.85;26.33;;;;;;;9.08;100.00;100729.97;4985113;28;20042;-78
2023/01/07 10:25:44;;;;;;;48.05;26.38;;;;;;;9.06;100.00;100721.28;4992025;28;20073;-78
2023/01/07 10:28:32;;;;;;;50.35;28.15;;;;;;;9.15;100.00;100727.53;5009456;28;20702;-77
2023/01/07 10:31:00;;;;;;;45.97;26.25;;;;;;;9.11;100.00;100729.66;5007630;28;20061;-78
2023/01/07 10:33:29;;;;;;;46.60;26.67;;;;;;;9.01;100.00;100718.25;5007660;28;20453;-77
2023/01/07 10:36:19;;;;;;;45.30;26.77;;;;;;;9.15;100.00;100724.84;5006099;28;20032;-78
2023/01/07 10:38:58;;;;;;;45.33;26.00;;;;;;;9.19;100.00;100719.06;5006949;28;20042;-79
2023/01/07 10:41:34;;;;;;;41.58;25.83;;;;;;;9.12;100.00;100710.03;5011656;28;20034;-77
2023/01/07 10:44:18;;;;;;;40.70;24.65;;;;;;;9.25;100.00;100699.81;5011581;28;20038;-78
2023/01/07 10:47:18;;;;;;;44.15;25.95;;;;;;;9.17;100.00;100693.59;5010474;28;20034;-77
2023/01/07 10:50:16;;;;;;;45.63;26.48;;;;;;;9.17;100.00;100690.91;5010005;28;20037;-77
2023/01/07 10:53:02;;;;;;;45.28;26.15;;;;;;;9.18;100.00;100704.09;5009190;28;20441;-78
2023/01/07 10:55:41;;;;;;;45.08;27.30;;;;;;;9.14;100.00;100694.72;5017766;28;20475;-77
2023/01/07 10:58:10;;;;;;;47.08;28.65;;;;;;;9.15;100.00;100684.91;5010568;28;20034;-78
2023/01/07 11:00:36;;;;;;;42.40;26.67;;;;;;;9.14;100.00;100681.41;4993047;28;20025;-77
2023/01/07 11:03:02;;;;;;;44.50;25.95;;;;;;;9.18;100.00;100680.13;4993413;28;20107;-77
2023/01/07 11:05:36;;;;;;;45.80;27.40;;;;;;;9.15;100.00;100677.75;5010730;28;20370;-77
2023/01/07 11:08:03;;;;;;;46.72;28.17;;;;;;;9.18;100.00;100685.44;5009055;28;20038;-77
2023/01/07 11:10:35;;;;;;;46.67;26.10;;;;;;;9.16;100.00;100679.44;5008570;28;20030;-77
2023/01/07 11:13:17;;;;;;;47.67;26.52;;;;;;;9.19;100.00;100683.63;5004877;28;20041;-77
2023/01/07 11:15:49;;;;;;;42.60;24.67;;;;;;;9.15;100.00;100672.41;5009734;28;20434;-77
2023/01/07 11:18:28;;;;;;;41.88;25.55;;;;;;;9.19;100.00;100668.47;5009833;28;20044;-77
2023/01/07 11:20:56;;;;;;;39.38;25.38;;;;;;;9.14;100.00;100680.59;5011319;28;20034;-77
2023/01/07 11:23:28;;;;;;;40.47;24.60;;;;;;;9.15;100.00;100676.91;5013724;28;20028;-77